sensor_id;sensor_type;location;lat;lon;timestamp;pressure;altitude;pressure_sealevel;temperature;humidity
20628;BME280;10473;42.734;24.258;2023-04-15T00:01:52;91125.81;;;7.38;73.61
20628;BME280;10473;42.734;24.258;2023-04-15T00:04:20;91128.19;;;7.50;73.08
20628;BME280;10473;42.734;24.258;2023-04-15T00:06:51;91125.94;;;7.56;72.87
20628;BME280;10473;42.734;24.258;2023-04-15T00:09:20;91125.53;;;7.07;74.58
20628;BME280;10473;42.734;24.258;2023-04-15T00:11:49;91122.75;;;7.29;74.66
20628;BME280;10473;42.734;24.258;2023-04-15T00:14:17;91114.50;;;7.34;73.99
20628;BME280;10473;42.734;24.258;2023-04-15T00:16:46;91108.50;;;7.41;73.95
20628;BME280;10473;42.734;24.258;2023-04-15T00:19:20;91100.22;;;7.39;73.65
20628;BME280;10473;42.734;24.258;2023-04-15T00:21:48;91117.94;;;7.42;73.28
20628;BME280;10473;42.734;24.258;2023-04-15T00:24:15;91112.56;;;7.28;74.13
20628;BME280;10473;42.734;24.258;2023-04-15T00:26:43;91118.34;;;7.44;74.02
20628;BME280;10473;42.734;24.258;2023-04-15T00:29:11;91118.34;;;7.44;74.02
20628;BME280;10473;42.734;24.258;2023-04-15T00:31:38;91119.91;;;7.52;74.03
20628;BME280;10473;42.734;24.258;2023-04-15T00:34:07;91111.25;;;7.55;73.51
20628;BME280;10473;42.734;24.258;2023-04-15T00:36:36;91117.28;;;7.52;74.15
20628;BME280;10473;42.734;24.258;2023-04-15T00:39:03;91123.75;;;7.61;73.79
20628;BME280;10473;42.734;24.258;2023-04-15T00:41:31;91124.31;;;7.41;74.45
20628;BME280;10473;42.734;24.258;2023-04-15T00:44:00;91114.72;;;7.19;75.82
20628;BME280;10473;42.734;24.258;2023-04-15T00:46:28;91123.56;;;7.37;75.55
20628;BME280;10473;42.734;24.258;2023-04-15T00:48:57;91117.38;;;7.19;75.40
20628;BME280;10473;42.734;24.258;2023-04-15T00:51:26;91112.66;;;7.02;75.67
20628;BME280;10473;42.734;24.258;2023-04-15T00:53:54;91107.63;;;7.23;75.86
20628;BME280;10473;42.734;24.258;2023-04-15T00:56:22;91114.13;;;6.96;77.73
20628;BME280;10473;42.734;24.258;2023-04-15T00:58:51;91106.44;;;7.17;76.28
20628;BME280;10473;42.734;24.258;2023-04-15T01:01:20;91128.69;;;7.23;75.64
20628;BME280;10473;42.734;24.258;2023-04-15T01:03:49;91112.75;;;7.09;76.28
20628;BME280;10473;42.734;24.258;2023-04-15T01:06:17;91128.75;;;7.30;76.44
20628;BME280;10473;42.734;24.258;2023-04-15T01:08:46;91128.38;;;7.31;76.12
20628;BME280;10473;42.734;24.258;2023-04-15T01:11:14;91132.47;;;7.22;76.74
20628;BME280;10473;42.734;24.258;2023-04-15T01:13:42;91124.28;;;7.37;76.10
20628;BME280;10473;42.734;24.258;2023-04-15T01:16:10;91114.41;;;7.24;76.36
20628;BME280;10473;42.734;24.258;2023-04-15T01:18:38;91106.16;;;7.29;76.01
20628;BME280;10473;42.734;24.258;2023-04-15T01:21:06;91100.84;;;7.22;76.35
20628;BME280;10473;42.734;24.258;2023-04-15T01:23:35;91122.03;;;7.36;76.50
20628;BME280;10473;42.734;24.258;2023-04-15T01:26:05;91128.22;;;7.57;74.95
20628;BME280;10473;42.734;24.258;2023-04-15T01:28:34;91119.72;;;7.31;75.96
20628;BME280;10473;42.734;24.258;2023-04-15T01:31:07;91131.13;;;7.42;75.87
20628;BME280;10473;42.734;24.258;2023-04-15T01:33:37;91136.28;;;7.31;76.29
20628;BME280;10473;42.734;24.258;2023-04-15T01:36:06;91143.81;;;7.29;76.23
20628;BME280;10473;42.734;24.258;2023-04-15T01:38:35;91130.34;;;7.38;75.45
20628;BME280;10473;42.734;24.258;2023-04-15T01:41:04;91134.84;;;7.41;74.89
20628;BME280;10473;42.734;24.258;2023-04-15T01:43:33;91137.91;;;7.43;75.20
20628;BME280;10473;42.734;24.258;2023-04-15T01:46:01;91142.88;;;7.55;74.28
20628;BME280;10473;42.734;24.258;2023-04-15T01:48:31;91138.75;;;7.54;74.51
20628;BME280;10473;42.734;24.258;2023-04-15T01:50:59;91137.28;;;7.60;74.30
20628;BME280;10473;42.734;24.258;2023-04-15T01:53:27;91132.06;;;7.67;74.09
20628;BME280;10473;42.734;24.258;2023-04-15T01:55:55;91139.97;;;7.67;74.05
20628;BME280;10473;42.734;24.258;2023-04-15T01:58:24;91133.44;;;7.50;74.49
20628;BME280;10473;42.734;24.258;2023-04-15T02:00:52;91145.28;;;7.70;73.97
20628;BME280;10473;42.734;24.258;2023-04-15T02:03:20;91152.41;;;7.70;73.87
20628;BME280;10473;42.734;24.258;2023-04-15T02:05:47;91152.06;;;7.75;74.03
20628;BME280;10473;42.734;24.258;2023-04-15T02:08:16;91152.72;;;7.58;73.87
20628;BME280;10473;42.734;24.258;2023-04-15T02:10:43;91160.31;;;7.70;74.32
20628;BME280;10473;42.734;24.258;2023-04-15T02:13:11;91163.75;;;7.74;73.59
20628;BME280;10473;42.734;24.258;2023-04-15T02:15:46;91162.59;;;7.68;73.98
20628;BME280;10473;42.734;24.258;2023-04-15T02:18:14;91159.81;;;7.54;74.22
20628;BME280;10473;42.734;24.258;2023-04-15T02:20:43;91160.50;;;7.44;74.38
20628;BME280;10473;42.734;24.258;2023-04-15T02:23:12;91164.84;;;7.26;74.73
20628;BME280;10473;42.734;24.258;2023-04-15T02:25:43;91154.28;;;7.26;74.66
20628;BME280;10473;42.734;24.258;2023-04-15T02:28:11;91156.03;;;6.75;76.62
20628;BME280;10473;42.734;24.258;2023-04-15T02:30:38;91160.63;;;6.81;77.23
20628;BME280;10473;42.734;24.258;2023-04-15T02:33:08;91170.47;;;6.88;76.23
20628;BME280;10473;42.734;24.258;2023-04-15T02:35:36;91151.97;;;6.48;77.45
20628;BME280;10473;42.734;24.258;2023-04-15T02:38:07;91172.38;;;6.58;77.72
20628;BME280;10473;42.734;24.258;2023-04-15T02:40:36;91167.19;;;6.65;76.48
20628;BME280;10473;42.734;24.258;2023-04-15T02:43:03;91172.75;;;6.56;77.11
20628;BME280;10473;42.734;24.258;2023-04-15T02:45:33;91169.50;;;6.70;76.10
20628;BME280;10473;42.734;24.258;2023-04-15T02:48:03;91170.22;;;6.67;75.35
20628;BME280;10473;42.734;24.258;2023-04-15T02:50:33;91173.31;;;6.72;75.87
20628;BME280;10473;42.734;24.258;2023-04-15T02:53:00;91171.81;;;6.75;74.48
20628;BME280;10473;42.734;24.258;2023-04-15T02:55:29;91171.53;;;6.21;76.53
20628;BME280;10473;42.734;24.258;2023-04-15T02:57:56;91165.13;;;6.22;77.66
20628;BME280;10473;42.734;24.258;2023-04-15T03:00:25;91156.75;;;6.13;78.04
20628;BME280;10473;42.734;24.258;2023-04-15T03:02:57;91169.81;;;6.06;78.52
20628;BME280;10473;42.734;24.258;2023-04-15T03:05:26;91168.28;;;6.31;76.58
20628;BME280;10473;42.734;24.258;2023-04-15T03:07:55;91115.13;;;5.89;76.33
20628;BME280;10473;42.734;24.258;2023-04-15T03:10:22;91159.56;;;6.27;77.23
20628;BME280;10473;42.734;24.258;2023-04-15T03:12:50;91158.63;;;6.42;76.04
20628;BME280;10473;42.734;24.258;2023-04-15T03:15:21;91161.88;;;6.32;76.92
20628;BME280;10473;42.734;24.258;2023-04-15T03:17:51;91142.91;;;6.16;77.14
20628;BME280;10473;42.734;24.258;2023-04-15T03:20:19;91158.44;;;6.28;77.36
20628;BME280;10473;42.734;24.258;2023-04-15T03:22:48;91151.44;;;6.09;77.73
20628;BME280;10473;42.734;24.258;2023-04-15T03:25:17;91154.72;;;6.29;77.68
20628;BME280;10473;42.734;24.258;2023-04-15T03:27:45;91157.34;;;6.29;76.57
20628;BME280;10473;42.734;24.258;2023-04-15T03:30:13;91163.56;;;6.14;78.07
20628;BME280;10473;42.734;24.258;2023-04-15T03:32:41;91163.72;;;6.28;76.54
20628;BME280;10473;42.734;24.258;2023-04-15T03:35:09;91170.81;;;6.24;76.65
20628;BME280;10473;42.734;24.258;2023-04-15T03:37:36;91175.00;;;6.28;75.88
20628;BME280;10473;42.734;24.258;2023-04-15T03:40:05;91177.28;;;6.30;75.48
20628;BME280;10473;42.734;24.258;2023-04-15T03:42:34;91184.72;;;6.24;75.57
20628;BME280;10473;42.734;24.258;2023-04-15T03:45:02;91186.59;;;6.24;75.59
20628;BME280;10473;42.734;24.258;2023-04-15T03:47:30;91192.28;;;6.29;75.20
20628;BME280;10473;42.734;24.258;2023-04-15T03:49:57;91195.97;;;6.21;76.62
20628;BME280;10473;42.734;24.258;2023-04-15T03:52:25;91187.66;;;6.19;75.72
20628;BME280;10473;42.734;24.258;2023-04-15T03:54:53;91180.50;;;6.16;76.49
20628;BME280;10473;42.734;24.258;2023-04-15T03:57:21;91197.88;;;6.24;76.45
20628;BME280;10473;42.734;24.258;2023-04-15T03:59:50;91200.59;;;6.31;76.97
20628;BME280;10473;42.734;24.258;2023-04-15T04:02:17;91186.50;;;5.91;77.43
20628;BME280;10473;42.734;24.258;2023-04-15T04:04:45;91202.78;;;6.26;77.05
20628;BME280;10473;42.734;24.258;2023-04-15T04:07:14;91175.88;;;6.10;77.13
20628;BME280;10473;42.734;24.258;2023-04-15T04:09:42;91197.44;;;6.19;77.58
20628;BME280;10473;42.734;24.258;2023-04-15T04:12:11;91200.53;;;6.28;77.27
20628;BME280;10473;42.734;24.258;2023-04-15T04:14:38;91194.50;;;6.24;78.31
20628;BME280;10473;42.734;24.258;2023-04-15T04:17:07;91192.66;;;6.28;78.11
20628;BME280;10473;42.734;24.258;2023-04-15T04:19:35;91206.81;;;6.46;77.70
20628;BME280;10473;42.734;24.258;2023-04-15T04:22:03;91206.41;;;6.18;79.05
20628;BME280;10473;42.734;24.258;2023-04-15T04:24:31;91215.31;;;6.36;79.16
20628;BME280;10473;42.734;24.258;2023-04-15T04:26:58;91221.16;;;6.52;78.43
20628;BME280;10473;42.734;24.258;2023-04-15T04:29:26;91219.63;;;6.21;80.43
20628;BME280;10473;42.734;24.258;2023-04-15T04:31:54;91201.34;;;6.32;79.55
20628;BME280;10473;42.734;24.258;2023-04-15T04:34:23;91226.66;;;6.69;79.15
20628;BME280;10473;42.734;24.258;2023-04-15T04:36:51;91205.25;;;6.71;79.34
20628;BME280;10473;42.734;24.258;2023-04-15T04:39:18;91217.66;;;7.03;78.95
20628;BME280;10473;42.734;24.258;2023-04-15T04:41:46;91222.34;;;7.17;79.07
20628;BME280;10473;42.734;24.258;2023-04-15T04:44:14;91236.34;;;7.24;79.80
20628;BME280;10473;42.734;24.258;2023-04-15T04:46:41;91232.13;;;7.53;78.81
20628;BME280;10473;42.734;24.258;2023-04-15T04:49:09;91242.31;;;7.58;77.94
20628;BME280;10473;42.734;24.258;2023-04-15T04:51:38;91216.34;;;7.60;77.10
20628;BME280;10473;42.734;24.258;2023-04-15T04:54:06;91248.28;;;7.91;76.64
20628;BME280;10473;42.734;24.258;2023-04-15T04:56:33;91229.34;;;7.79;77.06
20628;BME280;10473;42.734;24.258;2023-04-15T04:59:02;91257.13;;;8.13;76.92
20628;BME280;10473;42.734;24.258;2023-04-15T05:01:30;91254.16;;;8.18;76.93
20628;BME280;10473;42.734;24.258;2023-04-15T05:03:57;91262.78;;;8.15;77.21
20628;BME280;10473;42.734;24.258;2023-04-15T05:06:25;91257.31;;;8.34;76.29
20628;BME280;10473;42.734;24.258;2023-04-15T05:08:57;91262.66;;;8.41;75.20
20628;BME280;10473;42.734;24.258;2023-04-15T05:11:25;91267.59;;;8.46;75.43
20628;BME280;10473;42.734;24.258;2023-04-15T05:13:53;91267.66;;;8.56;75.02
20628;BME280;10473;42.734;24.258;2023-04-15T05:16:21;91254.72;;;8.41;74.95
20628;BME280;10473;42.734;24.258;2023-04-15T05:18:48;91266.59;;;8.68;74.91
20628;BME280;10473;42.734;24.258;2023-04-15T05:21:16;91260.22;;;8.72;75.08
20628;BME280;10473;42.734;24.258;2023-04-15T05:23:44;91267.81;;;8.81;75.38
20628;BME280;10473;42.734;24.258;2023-04-15T05:26:13;91258.84;;;9.03;74.91
20628;BME280;10473;42.734;24.258;2023-04-15T05:28:40;91258.63;;;9.32;75.35
20628;BME280;10473;42.734;24.258;2023-04-15T05:31:08;91266.66;;;9.71;74.82
20628;BME280;10473;42.734;24.258;2023-04-15T05:33:36;91263.66;;;9.97;74.49
20628;BME280;10473;42.734;24.258;2023-04-15T05:36:04;91267.13;;;10.15;72.63
20628;BME280;10473;42.734;24.258;2023-04-15T05:38:32;91273.56;;;10.52;70.40
20628;BME280;10473;42.734;24.258;2023-04-15T05:41:00;91278.06;;;10.80;70.16
20628;BME280;10473;42.734;24.258;2023-04-15T05:43:29;91280.75;;;10.69;68.95
20628;BME280;10473;42.734;24.258;2023-04-15T05:45:57;91276.53;;;11.00;68.67
20628;BME280;10473;42.734;24.258;2023-04-15T05:48:27;91280.25;;;11.27;67.03
20628;BME280;10473;42.734;24.258;2023-04-15T05:50:55;91286.25;;;11.41;65.67
20628;BME280;10473;42.734;24.258;2023-04-15T05:53:23;91291.81;;;11.82;65.44
20628;BME280;10473;42.734;24.258;2023-04-15T05:55:51;91288.25;;;12.09;64.80
20628;BME280;10473;42.734;24.258;2023-04-15T05:58:18;91300.25;;;12.31;63.74
20628;BME280;10473;42.734;24.258;2023-04-15T06:00:47;91307.25;;;12.62;63.39
20628;BME280;10473;42.734;24.258;2023-04-15T06:03:15;91309.97;;;13.03;62.02
20628;BME280;10473;42.734;24.258;2023-04-15T06:05:43;91320.47;;;13.17;60.51
20628;BME280;10473;42.734;24.258;2023-04-15T06:08:11;91326.16;;;13.19;61.24
20628;BME280;10473;42.734;24.258;2023-04-15T06:10:39;91319.81;;;13.46;60.58
20628;BME280;10473;42.734;24.258;2023-04-15T06:13:06;91325.28;;;13.69;60.65
20628;BME280;10473;42.734;24.258;2023-04-15T06:15:34;91325.41;;;13.89;59.10
20628;BME280;10473;42.734;24.258;2023-04-15T06:18:03;91336.56;;;14.10;58.01
20628;BME280;10473;42.734;24.258;2023-04-15T06:20:31;91326.28;;;13.79;57.58
20628;BME280;10473;42.734;24.258;2023-04-15T06:22:59;91335.03;;;13.79;58.25
20628;BME280;10473;42.734;24.258;2023-04-15T06:25:26;91338.38;;;13.87;58.13
20628;BME280;10473;42.734;24.258;2023-04-15T06:27:54;91337.41;;;14.04;58.98
20628;BME280;10473;42.734;24.258;2023-04-15T06:30:23;91332.69;;;13.85;60.49
20628;BME280;10473;42.734;24.258;2023-04-15T06:32:51;91296.38;;;13.68;59.28
20628;BME280;10473;42.734;24.258;2023-04-15T06:35:20;91329.91;;;13.95;59.48
20628;BME280;10473;42.734;24.258;2023-04-15T06:37:48;91332.53;;;14.29;59.61
20628;BME280;10473;42.734;24.258;2023-04-15T06:40:16;91334.63;;;14.71;60.49
20628;BME280;10473;42.734;24.258;2023-04-15T06:42:44;91325.72;;;15.04;57.17
20628;BME280;10473;42.734;24.258;2023-04-15T06:45:12;91338.59;;;15.32;56.47
20628;BME280;10473;42.734;24.258;2023-04-15T06:47:40;91347.31;;;15.59;54.69
20628;BME280;10473;42.734;24.258;2023-04-15T06:50:09;91341.31;;;15.94;54.78
20628;BME280;10473;42.734;24.258;2023-04-15T06:52:38;91346.41;;;16.08;54.34
20628;BME280;10473;42.734;24.258;2023-04-15T06:55:07;91354.72;;;16.29;51.47
20628;BME280;10473;42.734;24.258;2023-04-15T06:57:35;91343.88;;;16.56;53.04
20628;BME280;10473;42.734;24.258;2023-04-15T07:00:03;91354.13;;;16.77;52.02
20628;BME280;10473;42.734;24.258;2023-04-15T07:02:32;91352.59;;;16.76;51.99
20628;BME280;10473;42.734;24.258;2023-04-15T07:05:00;91361.34;;;16.96;49.97
20628;BME280;10473;42.734;24.258;2023-04-15T07:07:28;91359.44;;;17.12;48.55
20628;BME280;10473;42.734;24.258;2023-04-15T07:09:57;91360.00;;;17.20;48.23
20628;BME280;10473;42.734;24.258;2023-04-15T07:12:25;91356.59;;;17.19;47.02
20628;BME280;10473;42.734;24.258;2023-04-15T07:14:53;91373.06;;;17.34;42.05
20628;BME280;10473;42.734;24.258;2023-04-15T07:17:21;91369.91;;;17.23;42.68
20628;BME280;10473;42.734;24.258;2023-04-15T07:19:48;91354.47;;;17.11;38.95
20628;BME280;10473;42.734;24.258;2023-04-15T07:22:16;91358.75;;;17.08;41.33
20628;BME280;10473;42.734;24.258;2023-04-15T07:24:44;91369.53;;;17.21;42.16
20628;BME280;10473;42.734;24.258;2023-04-15T07:30:55;91362.19;;;16.93;40.43
20628;BME280;10473;42.734;24.258;2023-04-15T07:33:25;91374.25;;;17.17;39.96
20628;BME280;10473;42.734;24.258;2023-04-15T07:35:53;91376.94;;;17.49;39.40
20628;BME280;10473;42.734;24.258;2023-04-15T07:38:24;91379.13;;;17.54;40.32
20628;BME280;10473;42.734;24.258;2023-04-15T07:40:52;91369.91;;;17.23;39.76
20628;BME280;10473;42.734;24.258;2023-04-15T07:43:20;91377.06;;;17.26;39.82
20628;BME280;10473;42.734;24.258;2023-04-15T07:45:47;91373.91;;;17.31;40.76
20628;BME280;10473;42.734;24.258;2023-04-15T07:48:17;91378.09;;;17.32;38.85
20628;BME280;10473;42.734;24.258;2023-04-15T07:50:44;91383.38;;;17.51;38.34
20628;BME280;10473;42.734;24.258;2023-04-15T07:53:12;91383.13;;;17.62;37.33
20628;BME280;10473;42.734;24.258;2023-04-15T07:55:40;91386.47;;;17.66;38.48
20628;BME280;10473;42.734;24.258;2023-04-15T07:58:09;91395.09;;;17.73;37.88
20628;BME280;10473;42.734;24.258;2023-04-15T08:00:37;91386.44;;;17.82;37.79
20628;BME280;10473;42.734;24.258;2023-04-15T08:03:05;91394.81;;;17.84;37.65
20628;BME280;10473;42.734;24.258;2023-04-15T08:05:34;91389.81;;;17.86;38.25
20628;BME280;10473;42.734;24.258;2023-04-15T08:08:02;91397.94;;;17.66;36.22
20628;BME280;10473;42.734;24.258;2023-04-15T08:10:30;91393.78;;;17.94;37.18
20628;BME280;10473;42.734;24.258;2023-04-15T08:12:58;91402.81;;;17.55;38.54
20628;BME280;10473;42.734;24.258;2023-04-15T08:15:26;91408.22;;;17.84;38.08
20628;BME280;10473;42.734;24.258;2023-04-15T08:17:54;91401.19;;;18.18;40.92
20628;BME280;10473;42.734;24.258;2023-04-15T08:20:22;91406.41;;;18.09;37.65
20628;BME280;10473;42.734;24.258;2023-04-15T08:22:51;91399.19;;;18.22;37.35
20628;BME280;10473;42.734;24.258;2023-04-15T08:25:19;91394.09;;;18.12;36.39
20628;BME280;10473;42.734;24.258;2023-04-15T08:27:46;91398.06;;;18.36;37.26
20628;BME280;10473;42.734;24.258;2023-04-15T08:30:14;91397.56;;;18.41;35.60
20628;BME280;10473;42.734;24.258;2023-04-15T08:32:44;91388.22;;;18.17;34.08
20628;BME280;10473;42.734;24.258;2023-04-15T08:35:12;91389.69;;;18.34;35.14
20628;BME280;10473;42.734;24.258;2023-04-15T08:37:40;91385.53;;;18.17;34.21
20628;BME280;10473;42.734;24.258;2023-04-15T08:40:10;91378.03;;;18.24;33.85
20628;BME280;10473;42.734;24.258;2023-04-15T08:42:43;91369.97;;;18.40;34.37
20628;BME280;10473;42.734;24.258;2023-04-15T08:45:11;91376.28;;;18.34;32.59
20628;BME280;10473;42.734;24.258;2023-04-15T08:47:39;91383.50;;;18.49;32.97
20628;BME280;10473;42.734;24.258;2023-04-15T08:50:08;91374.28;;;18.22;33.15
20628;BME280;10473;42.734;24.258;2023-04-15T08:52:37;91384.81;;;18.57;34.21
20628;BME280;10473;42.734;24.258;2023-04-15T08:55:08;91390.00;;;18.77;35.05
20628;BME280;10473;42.734;24.258;2023-04-15T08:57:37;91393.25;;;18.97;32.90
20628;BME280;10473;42.734;24.258;2023-04-15T09:00:06;91384.78;;;19.11;33.72
20628;BME280;10473;42.734;24.258;2023-04-15T09:02:34;91388.66;;;19.10;32.64
20628;BME280;10473;42.734;24.258;2023-04-15T09:05:02;91386.81;;;19.19;32.83
20628;BME280;10473;42.734;24.258;2023-04-15T09:07:38;91403.66;;;18.95;33.54
20628;BME280;10473;42.734;24.258;2023-04-15T09:10:06;91395.94;;;18.97;32.33
20628;BME280;10473;42.734;24.258;2023-04-15T09:12:37;91388.09;;;19.02;34.96
20628;BME280;10473;42.734;24.258;2023-04-15T09:15:05;91392.72;;;19.14;33.52
20628;BME280;10473;42.734;24.258;2023-04-15T09:17:41;91386.81;;;19.32;34.32
20628;BME280;10473;42.734;24.258;2023-04-15T09:20:14;91384.88;;;19.20;33.07
20628;BME280;10473;42.734;24.258;2023-04-15T09:22:57;91360.59;;;19.11;32.96
20628;BME280;10473;42.734;24.258;2023-04-15T09:25:26;91380.72;;;19.44;34.75
20628;BME280;10473;42.734;24.258;2023-04-15T09:27:56;91370.59;;;19.48;33.46
20628;BME280;10473;42.734;24.258;2023-04-15T09:30:24;91378.13;;;19.53;34.50
20628;BME280;10473;42.734;24.258;2023-04-15T09:32:53;91368.47;;;19.77;34.77
20628;BME280;10473;42.734;24.258;2023-04-15T09:35:23;91367.47;;;19.96;33.56
20628;BME280;10473;42.734;24.258;2023-04-15T09:37:52;91364.69;;;20.21;33.24
20628;BME280;10473;42.734;24.258;2023-04-15T09:40:40;91367.91;;;20.50;33.87
20628;BME280;10473;42.734;24.258;2023-04-15T09:43:09;91362.00;;;20.64;32.79
20628;BME280;10473;42.734;24.258;2023-04-15T09:45:46;91363.06;;;20.66;31.46
20628;BME280;10473;42.734;24.258;2023-04-15T09:48:16;91356.63;;;20.21;30.82
20628;BME280;10473;42.734;24.258;2023-04-15T09:50:45;91359.22;;;20.24;32.46
20628;BME280;10473;42.734;24.258;2023-04-15T09:53:18;91357.69;;;20.23;33.47
20628;BME280;10473;42.734;24.258;2023-04-15T09:55:48;91359.16;;;20.37;33.65
20628;BME280;10473;42.734;24.258;2023-04-15T09:58:19;91356.31;;;20.62;33.48
20628;BME280;10473;42.734;24.258;2023-04-15T10:00:47;91354.22;;;20.87;32.37
20628;BME280;10473;42.734;24.258;2023-04-15T10:03:18;91350.28;;;20.79;30.48
20628;BME280;10473;42.734;24.258;2023-04-15T10:05:47;91357.66;;;20.88;31.67
20628;BME280;10473;42.734;24.258;2023-04-15T10:08:18;91356.09;;;20.99;32.45
20628;BME280;10473;42.734;24.258;2023-04-15T10:10:47;91345.53;;;21.14;31.38
20628;BME280;10473;42.734;24.258;2023-04-15T10:13:18;91340.19;;;21.23;30.52
20628;BME280;10473;42.734;24.258;2023-04-15T10:15:50;91350.88;;;21.05;32.38
20628;BME280;10473;42.734;24.258;2023-04-15T10:18:19;91337.31;;;20.87;32.13
20628;BME280;10473;42.734;24.258;2023-04-15T10:20:47;91332.22;;;21.19;33.24
20628;BME280;10473;42.734;24.258;2023-04-15T10:23:17;91335.38;;;21.18;30.86
20628;BME280;10473;42.734;24.258;2023-04-15T10:25:46;91341.66;;;21.15;30.08
20628;BME280;10473;42.734;24.258;2023-04-15T10:28:15;91347.13;;;21.42;31.47
20628;BME280;10473;42.734;24.258;2023-04-15T10:30:44;91328.25;;;21.42;30.92
20628;BME280;10473;42.734;24.258;2023-04-15T10:33:14;91342.66;;;21.48;31.67
20628;BME280;10473;42.734;24.258;2023-04-15T10:35:43;91322.47;;;21.13;29.67
20628;BME280;10473;42.734;24.258;2023-04-15T10:38:35;91335.84;;;21.25;30.88
20628;BME280;10473;42.734;24.258;2023-04-15T10:41:16;91326.94;;;21.55;30.97
20628;BME280;10473;42.734;24.258;2023-04-15T10:47:51;91307.41;;;21.24;30.98
20628;BME280;10473;42.734;24.258;2023-04-15T10:50:19;91304.09;;;21.20;32.17
20628;BME280;10473;42.734;24.258;2023-04-15T10:52:50;91313.81;;;21.18;30.00
20628;BME280;10473;42.734;24.258;2023-04-15T10:55:20;91314.13;;;21.29;31.00
20628;BME280;10473;42.734;24.258;2023-04-15T10:57:51;91318.94;;;21.34;30.53
20628;BME280;10473;42.734;24.258;2023-04-15T11:00:24;91310.25;;;21.21;30.37
20628;BME280;10473;42.734;24.258;2023-04-15T11:02:55;91301.09;;;21.18;30.22
20628;BME280;10473;42.734;24.258;2023-04-15T11:05:49;91307.94;;;21.10;31.03
20628;BME280;10473;42.734;24.258;2023-04-15T11:08:20;91309.63;;;21.17;31.80
20628;BME280;10473;42.734;24.258;2023-04-15T11:11:05;91298.09;;;20.86;30.23
20628;BME280;10473;42.734;24.258;2023-04-15T11:13:33;91315.13;;;20.83;29.40
20628;BME280;10473;42.734;24.258;2023-04-15T11:16:01;91305.56;;;20.82;29.77
20628;BME280;10473;42.734;24.258;2023-04-15T11:18:33;91314.41;;;20.52;30.02
20628;BME280;10473;42.734;24.258;2023-04-15T11:21:04;91317.03;;;20.21;30.03
20628;BME280;10473;42.734;24.258;2023-04-15T11:23:34;91307.34;;;20.24;30.33
20628;BME280;10473;42.734;24.258;2023-04-15T11:26:03;91313.97;;;20.10;30.29
20628;BME280;10473;42.734;24.258;2023-04-15T11:28:35;91313.06;;;20.35;30.58
20628;BME280;10473;42.734;24.258;2023-04-15T11:31:07;91303.22;;;20.62;30.93
20628;BME280;10473;42.734;24.258;2023-04-15T11:33:43;91311.66;;;20.73;29.60
20628;BME280;10473;42.734;24.258;2023-04-15T11:36:12;91319.66;;;20.86;29.04
20628;BME280;10473;42.734;24.258;2023-04-15T11:38:44;91326.50;;;20.78;31.75
20628;BME280;10473;42.734;24.258;2023-04-15T11:41:12;91322.97;;;20.59;30.59
20628;BME280;10473;42.734;24.258;2023-04-15T11:43:41;91319.03;;;20.30;30.48
20628;BME280;10473;42.734;24.258;2023-04-15T11:46:08;91308.94;;;20.43;30.00
20628;BME280;10473;42.734;24.258;2023-04-15T11:48:42;91307.59;;;20.17;30.20
20628;BME280;10473;42.734;24.258;2023-04-15T11:51:10;91320.22;;;20.29;31.14
20628;BME280;10473;42.734;24.258;2023-04-15T11:53:39;91313.91;;;20.23;30.95
20628;BME280;10473;42.734;24.258;2023-04-15T11:56:08;91316.06;;;19.94;34.21
20628;BME280;10473;42.734;24.258;2023-04-15T11:58:37;91308.13;;;19.56;36.13
20628;BME280;10473;42.734;24.258;2023-04-15T12:01:05;91302.16;;;19.02;38.75
20628;BME280;10473;42.734;24.258;2023-04-15T12:03:38;91300.97;;;18.41;38.49
20628;BME280;10473;42.734;24.258;2023-04-15T12:06:10;91306.53;;;18.34;38.06
20628;BME280;10473;42.734;24.258;2023-04-15T12:09:08;91294.34;;;18.17;39.06
20628;BME280;10473;42.734;24.258;2023-04-15T12:11:41;91297.91;;;18.26;38.92
20628;BME280;10473;42.734;24.258;2023-04-15T12:14:12;91295.97;;;18.27;37.13
20628;BME280;10473;42.734;24.258;2023-04-15T12:16:44;91286.63;;;18.31;37.12
20628;BME280;10473;42.734;24.258;2023-04-15T12:19:15;91293.88;;;18.47;37.64
20628;BME280;10473;42.734;24.258;2023-04-15T12:21:44;91288.53;;;18.59;38.41
20628;BME280;10473;42.734;24.258;2023-04-15T12:24:13;91289.38;;;18.44;37.24
20628;BME280;10473;42.734;24.258;2023-04-15T12:26:46;91285.53;;;18.16;37.44
20628;BME280;10473;42.734;24.258;2023-04-15T12:29:15;91292.94;;;18.00;39.43
20628;BME280;10473;42.734;24.258;2023-04-15T12:31:49;91299.78;;;17.72;41.07
20628;BME280;10473;42.734;24.258;2023-04-15T12:34:25;91301.25;;;17.61;41.10
20628;BME280;10473;42.734;24.258;2023-04-15T12:36:55;91302.94;;;17.23;40.93
20628;BME280;10473;42.734;24.258;2023-04-15T12:39:23;91297.34;;;17.17;41.54
20628;BME280;10473;42.734;24.258;2023-04-15T12:41:51;91291.06;;;17.24;41.83
20628;BME280;10473;42.734;24.258;2023-04-15T12:44:21;91293.06;;;17.36;40.82
20628;BME280;10473;42.734;24.258;2023-04-15T12:46:50;91304.78;;;17.26;40.05
20628;BME280;10473;42.734;24.258;2023-04-15T12:49:19;91302.59;;;17.21;40.32
20628;BME280;10473;42.734;24.258;2023-04-15T12:51:48;91302.97;;;17.39;39.89
20628;BME280;10473;42.734;24.258;2023-04-15T12:54:16;91290.28;;;17.55;39.28
20628;BME280;10473;42.734;24.258;2023-04-15T12:56:44;91289.09;;;17.85;41.19
20628;BME280;10473;42.734;24.258;2023-04-15T12:59:14;91301.50;;;17.95;39.62
20628;BME280;10473;42.734;24.258;2023-04-15T13:01:43;91299.47;;;18.11;38.78
20628;BME280;10473;42.734;24.258;2023-04-15T13:04:11;91298.56;;;17.89;38.85
20628;BME280;10473;42.734;24.258;2023-04-15T13:06:40;91313.31;;;17.81;39.33
20628;BME280;10473;42.734;24.258;2023-04-15T13:09:07;91297.44;;;17.46;39.77
20628;BME280;10473;42.734;24.258;2023-04-15T13:11:35;91309.41;;;17.41;39.87
20628;BME280;10473;42.734;24.258;2023-04-15T13:14:05;91307.63;;;17.35;39.60